East Coast - north of Cape St. Francis: Past 24 Hour Conditions

 

East Point

03:00 PM ADT 29 August 2014
This table is a summary of hourly weather conditions for the past 24 hours.
Date / Time
(ADT)
Wind(knots) Conditions Visibility(km) Pressure(kPa) Air tempC) Relative humidity(%) Dew pointC)
29 August 2014
15:00 NNE 22 gust 28 N/A N/A 101.8 15 67 9
14:00 NNE 23 gust 30 N/A N/A 101.7 16 65 9
13:00 NNE 28 gust 36 N/A N/A 101.6 15 72 10
12:00 NNE 29 gust 34 N/A N/A 101.5 14 85 12
11:00 NNE 22 gust 31 N/A N/A 101.4 14 87 12
10:00 NNE 25 gust 31 N/A N/A 101.2 15 77 11
9:00 NNE 26 gust 31 N/A N/A 101.1 15 80 12
8:00 NNE 25 gust 32 N/A N/A 101.0 15 83 12
7:00 NNE 25 gust 31 N/A N/A 100.9 14 93 13
6:00 NNE 28 gust 33 N/A N/A 100.7 15 84 12
5:00 NNE 29 gust 34 N/A N/A 100.6 15 90 14
4:00 NNE 25 gust 30 N/A N/A 100.5 15 95 14
3:00 NNE 30 gust 35 N/A N/A 100.4 16 93 15
2:00 NNE 28 gust 33 N/A N/A 100.3 16 92 15
1:00 NNE 28 gust 34 N/A N/A 100.3 16 94 15
0:00 NNE 27 N/A N/A 100.3 16 94 15
28 August 2014
23:00 NNE 18 N/A N/A 100.3 17 93 16
22:00 NNE 13 N/A N/A 100.3 17 90 16
21:00 NNE 16 N/A N/A 100.3 18 89 16
20:00 NNE 14 N/A N/A 100.3 18 91 16
19:00 NNE 15 N/A N/A 100.3 18 92 16
18:00 NE 11 N/A N/A 100.3 19 90 17
17:00 NE 14 N/A N/A 100.3 18 92 17
16:00 NNE 13 N/A N/A 100.3 18 92 17
15:00 SSW 3 N/A N/A 100.4 20 88 18
 
Map of Atlantic - Newfoundland marine weather areas Southwestern Grand Banks - 44138 Banquereau - 44139 Tail of the Bank - 44140 Nickerson Bank - 44251 Northeast Burgeo Bank - 44255 Blanc-Sablon Airport Cap Whittle Chevery Natashquan Airport Heath Point Miscou Island Grand Étang Ingonish Beach North Mountain St.Paul Island J.A. Douglas McCurdy Sydney Airport Charlottetown Airport East Point North Cape Argentia Bonavista Burgeo Cape Race Corner Brook Daniel's Harbour Englee Ferolle Point La Scie Port aux Basques Rocky Harbour Sagona Island St. Anthony Airport St. John's Int'l Airport St. Lawrence Stephenville Airport Twillingate Winterland Wreckhouse Cartwright Airport Mary's Harbour Grates Cove Pool's Island Marticot Island Long Pond Îles de la Madeleine Airport
Legend: buoyBuoy land stationLand Station